sensor_id;sensor_type;location;lat;lon;timestamp;P1;durP1;ratioP1;P2;durP2;ratioP2
76320;SDS011;65132;52.088;5.402;2023-11-21T00:00:30;15.40;;;6.32;;
76320;SDS011;65132;52.088;5.402;2023-11-21T00:02:56;13.02;;;5.72;;
76320;SDS011;65132;52.088;5.402;2023-11-21T00:05:31;16.20;;;6.32;;
76320;SDS011;65132;52.088;5.402;2023-11-21T00:08:03;15.00;;;6.72;;
76320;SDS011;65132;52.088;5.402;2023-11-21T00:10:37;15.45;;;6.38;;
76320;SDS011;65132;52.088;5.402;2023-11-21T00:13:08;15.45;;;6.82;;
76320;SDS011;65132;52.088;5.402;2023-11-21T00:15:35;16.10;;;5.93;;
76320;SDS011;65132;52.088;5.402;2023-11-21T00:18:01;18.17;;;6.70;;
76320;SDS011;65132;52.088;5.402;2023-11-21T00:20:29;14.68;;;5.68;;
76320;SDS011;65132;52.088;5.402;2023-11-21T00:22:56;16.13;;;6.13;;
76320;SDS011;65132;52.088;5.402;2023-11-21T00:25:23;14.48;;;5.65;;
76320;SDS011;65132;52.088;5.402;2023-11-21T00:27:51;15.13;;;6.03;;
76320;SDS011;65132;52.088;5.402;2023-11-21T00:30:18;12.88;;;5.82;;
76320;SDS011;65132;52.088;5.402;2023-11-21T00:32:44;17.77;;;7.05;;
76320;SDS011;65132;52.088;5.402;2023-11-21T00:35:11;17.27;;;6.72;;
76320;SDS011;65132;52.088;5.402;2023-11-21T00:40:14;13.30;;;4.88;;
76320;SDS011;65132;52.088;5.402;2023-11-21T00:42:43;14.60;;;6.00;;
76320;SDS011;65132;52.088;5.402;2023-11-21T00:45:09;15.23;;;5.95;;
76320;SDS011;65132;52.088;5.402;2023-11-21T00:47:41;25.35;;;6.78;;
76320;SDS011;65132;52.088;5.402;2023-11-21T00:50:08;14.30;;;6.15;;
76320;SDS011;65132;52.088;5.402;2023-11-21T00:52:36;11.80;;;5.60;;
76320;SDS011;65132;52.088;5.402;2023-11-21T00:55:04;12.05;;;4.70;;
76320;SDS011;65132;52.088;5.402;2023-11-21T00:57:31;14.73;;;5.43;;
76320;SDS011;65132;52.088;5.402;2023-11-21T00:59:58;12.20;;;5.88;;
76320;SDS011;65132;52.088;5.402;2023-11-21T01:02:24;12.93;;;6.30;;
76320;SDS011;65132;52.088;5.402;2023-11-21T01:04:59;13.90;;;5.88;;
76320;SDS011;65132;52.088;5.402;2023-11-21T01:07:32;13.20;;;5.38;;
76320;SDS011;65132;52.088;5.402;2023-11-21T01:09:59;13.05;;;5.07;;
76320;SDS011;65132;52.088;5.402;2023-11-21T01:12:25;14.00;;;5.70;;
76320;SDS011;65132;52.088;5.402;2023-11-21T01:14:52;13.32;;;5.72;;
76320;SDS011;65132;52.088;5.402;2023-11-21T01:17:21;13.48;;;5.57;;
76320;SDS011;65132;52.088;5.402;2023-11-21T01:19:50;17.02;;;6.25;;
76320;SDS011;65132;52.088;5.402;2023-11-21T01:22:18;14.00;;;5.85;;
76320;SDS011;65132;52.088;5.402;2023-11-21T01:24:48;15.00;;;5.95;;
76320;SDS011;65132;52.088;5.402;2023-11-21T01:27:20;12.93;;;5.35;;
76320;SDS011;65132;52.088;5.402;2023-11-21T01:29:48;11.07;;;5.15;;
76320;SDS011;65132;52.088;5.402;2023-11-21T01:32:17;14.85;;;5.63;;
76320;SDS011;65132;52.088;5.402;2023-11-21T01:34:43;13.40;;;5.72;;
76320;SDS011;65132;52.088;5.402;2023-11-21T01:37:10;12.00;;;5.32;;
76320;SDS011;65132;52.088;5.402;2023-11-21T01:39:39;13.90;;;5.40;;
76320;SDS011;65132;52.088;5.402;2023-11-21T01:42:10;13.93;;;5.10;;
76320;SDS011;65132;52.088;5.402;2023-11-21T01:44:37;14.95;;;5.22;;
76320;SDS011;65132;52.088;5.402;2023-11-21T01:47:04;10.25;;;5.03;;
76320;SDS011;65132;52.088;5.402;2023-11-21T01:49:36;12.70;;;5.32;;
76320;SDS011;65132;52.088;5.402;2023-11-21T01:52:03;12.40;;;5.00;;
76320;SDS011;65132;52.088;5.402;2023-11-21T01:54:44;9.10;;;4.05;;
76320;SDS011;65132;52.088;5.402;2023-11-21T01:57:11;12.82;;;4.78;;
76320;SDS011;65132;52.088;5.402;2023-11-21T01:59:39;11.52;;;4.88;;
76320;SDS011;65132;52.088;5.402;2023-11-21T02:02:07;12.10;;;4.78;;
76320;SDS011;65132;52.088;5.402;2023-11-21T02:04:38;13.18;;;4.80;;
76320;SDS011;65132;52.088;5.402;2023-11-21T02:07:11;15.38;;;5.50;;
76320;SDS011;65132;52.088;5.402;2023-11-21T02:09:38;14.38;;;5.30;;
76320;SDS011;65132;52.088;5.402;2023-11-21T02:12:04;9.88;;;4.53;;
76320;SDS011;65132;52.088;5.402;2023-11-21T02:14:35;12.70;;;5.00;;
76320;SDS011;65132;52.088;5.402;2023-11-21T02:17:01;13.40;;;5.18;;
76320;SDS011;65132;52.088;5.402;2023-11-21T02:19:32;12.45;;;4.28;;
76320;SDS011;65132;52.088;5.402;2023-11-21T02:21:59;11.55;;;4.45;;
76320;SDS011;65132;52.088;5.402;2023-11-21T02:24:28;11.38;;;4.88;;
76320;SDS011;65132;52.088;5.402;2023-11-21T02:26:55;10.32;;;4.85;;
76320;SDS011;65132;52.088;5.402;2023-11-21T02:29:22;11.75;;;4.60;;
76320;SDS011;65132;52.088;5.402;2023-11-21T02:31:54;9.82;;;4.53;;
76320;SDS011;65132;52.088;5.402;2023-11-21T02:34:21;11.82;;;4.85;;
76320;SDS011;65132;52.088;5.402;2023-11-21T02:36:52;11.55;;;4.63;;
76320;SDS011;65132;52.088;5.402;2023-11-21T02:39:30;11.93;;;5.05;;
76320;SDS011;65132;52.088;5.402;2023-11-21T02:42:00;12.20;;;4.57;;
76320;SDS011;65132;52.088;5.402;2023-11-21T02:44:26;10.10;;;4.65;;
76320;SDS011;65132;52.088;5.402;2023-11-21T02:46:53;13.15;;;5.20;;
76320;SDS011;65132;52.088;5.402;2023-11-21T02:49:21;8.30;;;4.30;;
76320;SDS011;65132;52.088;5.402;2023-11-21T02:51:48;12.05;;;4.93;;
76320;SDS011;65132;52.088;5.402;2023-11-21T02:54:14;12.13;;;4.78;;
76320;SDS011;65132;52.088;5.402;2023-11-21T02:56:42;9.57;;;4.25;;
76320;SDS011;65132;52.088;5.402;2023-11-21T02:59:10;10.73;;;5.15;;
76320;SDS011;65132;52.088;5.402;2023-11-21T03:01:45;12.48;;;4.32;;
76320;SDS011;65132;52.088;5.402;2023-11-21T03:04:12;12.10;;;5.03;;
76320;SDS011;65132;52.088;5.402;2023-11-21T03:06:38;13.75;;;4.97;;
76320;SDS011;65132;52.088;5.402;2023-11-21T03:09:05;10.90;;;4.80;;
76320;SDS011;65132;52.088;5.402;2023-11-21T03:11:34;11.60;;;5.18;;
76320;SDS011;65132;52.088;5.402;2023-11-21T03:14:04;9.40;;;4.28;;
76320;SDS011;65132;52.088;5.402;2023-11-21T03:16:34;12.32;;;5.20;;
76320;SDS011;65132;52.088;5.402;2023-11-21T03:19:02;11.35;;;4.88;;
76320;SDS011;65132;52.088;5.402;2023-11-21T03:21:31;9.95;;;4.47;;
76320;SDS011;65132;52.088;5.402;2023-11-21T03:24:02;11.98;;;5.10;;
76320;SDS011;65132;52.088;5.402;2023-11-21T03:26:29;16.13;;;5.68;;
76320;SDS011;65132;52.088;5.402;2023-11-21T03:28:55;15.10;;;6.50;;
76320;SDS011;65132;52.088;5.402;2023-11-21T03:31:22;15.98;;;6.18;;
76320;SDS011;65132;52.088;5.402;2023-11-21T03:33:48;12.43;;;5.93;;
76320;SDS011;65132;52.088;5.402;2023-11-21T03:36:15;15.82;;;6.10;;
76320;SDS011;65132;52.088;5.402;2023-11-21T03:38:43;15.82;;;6.28;;
76320;SDS011;65132;52.088;5.402;2023-11-21T03:41:10;15.45;;;6.35;;
76320;SDS011;65132;52.088;5.402;2023-11-21T03:43:38;18.33;;;7.05;;
76320;SDS011;65132;52.088;5.402;2023-11-21T03:46:04;15.10;;;7.05;;
76320;SDS011;65132;52.088;5.402;2023-11-21T03:48:31;20.25;;;6.88;;
76320;SDS011;65132;52.088;5.402;2023-11-21T03:50:57;19.25;;;7.43;;
76320;SDS011;65132;52.088;5.402;2023-11-21T03:53:24;17.58;;;7.20;;
76320;SDS011;65132;52.088;5.402;2023-11-21T03:55:50;15.52;;;7.13;;
76320;SDS011;65132;52.088;5.402;2023-11-21T03:58:19;14.20;;;6.35;;
76320;SDS011;65132;52.088;5.402;2023-11-21T04:00:46;21.80;;;7.93;;
76320;SDS011;65132;52.088;5.402;2023-11-21T04:03:14;18.20;;;7.32;;
76320;SDS011;65132;52.088;5.402;2023-11-21T04:05:41;16.80;;;6.70;;
76320;SDS011;65132;52.088;5.402;2023-11-21T04:08:07;17.35;;;7.65;;
76320;SDS011;65132;52.088;5.402;2023-11-21T04:10:36;17.77;;;6.90;;
76320;SDS011;65132;52.088;5.402;2023-11-21T04:13:03;18.08;;;7.85;;
76320;SDS011;65132;52.088;5.402;2023-11-21T04:15:32;15.95;;;6.57;;
76320;SDS011;65132;52.088;5.402;2023-11-21T04:17:58;20.40;;;7.60;;
76320;SDS011;65132;52.088;5.402;2023-11-21T04:20:25;17.90;;;7.38;;
76320;SDS011;65132;52.088;5.402;2023-11-21T04:22:55;15.77;;;6.95;;
76320;SDS011;65132;52.088;5.402;2023-11-21T04:25:24;18.50;;;6.85;;
76320;SDS011;65132;52.088;5.402;2023-11-21T04:27:55;14.25;;;6.40;;
76320;SDS011;65132;52.088;5.402;2023-11-21T04:30:24;13.02;;;5.18;;
76320;SDS011;65132;52.088;5.402;2023-11-21T04:37:48;15.45;;;6.20;;
76320;SDS011;65132;52.088;5.402;2023-11-21T04:40:15;15.70;;;6.60;;
76320;SDS011;65132;52.088;5.402;2023-11-21T04:42:45;16.00;;;6.90;;
76320;SDS011;65132;52.088;5.402;2023-11-21T04:45:11;17.20;;;6.60;;
76320;SDS011;65132;52.088;5.402;2023-11-21T04:47:39;14.00;;;6.00;;
76320;SDS011;65132;52.088;5.402;2023-11-21T04:50:13;16.13;;;6.80;;
76320;SDS011;65132;52.088;5.402;2023-11-21T04:52:39;18.27;;;7.10;;
76320;SDS011;65132;52.088;5.402;2023-11-21T04:55:09;13.48;;;5.35;;
76320;SDS011;65132;52.088;5.402;2023-11-21T04:57:37;15.40;;;6.60;;
76320;SDS011;65132;52.088;5.402;2023-11-21T05:00:07;14.20;;;6.25;;
76320;SDS011;65132;52.088;5.402;2023-11-21T05:02:35;15.75;;;6.55;;
76320;SDS011;65132;52.088;5.402;2023-11-21T05:05:02;17.90;;;7.32;;
76320;SDS011;65132;52.088;5.402;2023-11-21T05:07:29;20.45;;;6.63;;
76320;SDS011;65132;52.088;5.402;2023-11-21T05:09:58;16.20;;;7.10;;
76320;SDS011;65132;52.088;5.402;2023-11-21T05:12:24;20.25;;;7.50;;
76320;SDS011;65132;52.088;5.402;2023-11-21T05:14:51;18.77;;;7.45;;
76320;SDS011;65132;52.088;5.402;2023-11-21T05:17:20;20.05;;;7.28;;
76320;SDS011;65132;52.088;5.402;2023-11-21T05:19:48;13.45;;;6.20;;
76320;SDS011;65132;52.088;5.402;2023-11-21T05:22:15;15.40;;;6.70;;
76320;SDS011;65132;52.088;5.402;2023-11-21T05:24:43;16.92;;;7.35;;
76320;SDS011;65132;52.088;5.402;2023-11-21T05:27:10;17.25;;;6.13;;
76320;SDS011;65132;52.088;5.402;2023-11-21T05:29:36;16.20;;;7.05;;
76320;SDS011;65132;52.088;5.402;2023-11-21T05:32:07;21.08;;;6.78;;
76320;SDS011;65132;52.088;5.402;2023-11-21T05:34:34;15.13;;;5.95;;
76320;SDS011;65132;52.088;5.402;2023-11-21T05:37:01;18.83;;;7.30;;
76320;SDS011;65132;52.088;5.402;2023-11-21T05:39:28;15.80;;;6.55;;
76320;SDS011;65132;52.088;5.402;2023-11-21T05:41:54;17.95;;;6.65;;
76320;SDS011;65132;52.088;5.402;2023-11-21T05:44:28;19.65;;;6.88;;
76320;SDS011;65132;52.088;5.402;2023-11-21T05:46:58;19.15;;;7.05;;
76320;SDS011;65132;52.088;5.402;2023-11-21T05:49:25;18.42;;;6.50;;
76320;SDS011;65132;52.088;5.402;2023-11-21T05:51:53;18.23;;;7.40;;
76320;SDS011;65132;52.088;5.402;2023-11-21T05:54:20;20.33;;;6.75;;
76320;SDS011;65132;52.088;5.402;2023-11-21T05:56:49;19.27;;;6.88;;
76320;SDS011;65132;52.088;5.402;2023-11-21T05:59:20;17.75;;;7.20;;
76320;SDS011;65132;52.088;5.402;2023-11-21T06:01:49;17.80;;;7.35;;
76320;SDS011;65132;52.088;5.402;2023-11-21T06:04:15;20.33;;;6.75;;
76320;SDS011;65132;52.088;5.402;2023-11-21T06:06:42;20.90;;;7.05;;
76320;SDS011;65132;52.088;5.402;2023-11-21T06:09:11;15.10;;;6.03;;
76320;SDS011;65132;52.088;5.402;2023-11-21T06:11:37;21.70;;;7.47;;
76320;SDS011;65132;52.088;5.402;2023-11-21T06:14:08;18.67;;;6.50;;
76320;SDS011;65132;52.088;5.402;2023-11-21T06:16:35;20.77;;;6.35;;
76320;SDS011;65132;52.088;5.402;2023-11-21T06:19:04;21.55;;;7.22;;
76320;SDS011;65132;52.088;5.402;2023-11-21T06:21:33;20.25;;;6.65;;
76320;SDS011;65132;52.088;5.402;2023-11-21T06:23:59;18.00;;;7.20;;
76320;SDS011;65132;52.088;5.402;2023-11-21T06:26:26;19.70;;;6.47;;
76320;SDS011;65132;52.088;5.402;2023-11-21T06:28:55;19.55;;;7.22;;
76320;SDS011;65132;52.088;5.402;2023-11-21T06:31:24;18.50;;;7.20;;
76320;SDS011;65132;52.088;5.402;2023-11-21T06:33:52;18.60;;;7.07;;
76320;SDS011;65132;52.088;5.402;2023-11-21T06:36:18;21.45;;;7.53;;
76320;SDS011;65132;52.088;5.402;2023-11-21T06:38:52;23.25;;;7.95;;
76320;SDS011;65132;52.088;5.402;2023-11-21T06:41:18;17.23;;;7.05;;
76320;SDS011;65132;52.088;5.402;2023-11-21T06:43:45;22.88;;;7.22;;
76320;SDS011;65132;52.088;5.402;2023-11-21T06:46:13;18.30;;;6.85;;
76320;SDS011;65132;52.088;5.402;2023-11-21T06:48:42;15.65;;;6.25;;
76320;SDS011;65132;52.088;5.402;2023-11-21T06:51:09;18.05;;;6.60;;
76320;SDS011;65132;52.088;5.402;2023-11-21T06:53:36;21.65;;;6.95;;
76320;SDS011;65132;52.088;5.402;2023-11-21T06:56:05;17.92;;;6.55;;
76320;SDS011;65132;52.088;5.402;2023-11-21T06:58:41;15.93;;;6.72;;
76320;SDS011;65132;52.088;5.402;2023-11-21T07:01:08;18.80;;;6.25;;
76320;SDS011;65132;52.088;5.402;2023-11-21T07:03:36;19.63;;;6.60;;
76320;SDS011;65132;52.088;5.402;2023-11-21T07:06:03;17.42;;;6.82;;
76320;SDS011;65132;52.088;5.402;2023-11-21T07:08:30;14.40;;;6.13;;
76320;SDS011;65132;52.088;5.402;2023-11-21T07:11:00;16.92;;;6.47;;
76320;SDS011;65132;52.088;5.402;2023-11-21T07:13:30;18.45;;;6.57;;
76320;SDS011;65132;52.088;5.402;2023-11-21T07:15:59;16.15;;;6.47;;
76320;SDS011;65132;52.088;5.402;2023-11-21T07:18:29;15.45;;;6.07;;
76320;SDS011;65132;52.088;5.402;2023-11-21T07:20:55;18.60;;;7.05;;
76320;SDS011;65132;52.088;5.402;2023-11-21T07:23:22;16.02;;;5.82;;
76320;SDS011;65132;52.088;5.402;2023-11-21T07:25:59;18.88;;;6.45;;
76320;SDS011;65132;52.088;5.402;2023-11-21T07:28:31;15.43;;;5.85;;
76320;SDS011;65132;52.088;5.402;2023-11-21T07:30:57;14.65;;;5.43;;
76320;SDS011;65132;52.088;5.402;2023-11-21T07:33:27;15.82;;;6.13;;
76320;SDS011;65132;52.088;5.402;2023-11-21T07:35:54;15.15;;;5.72;;
76320;SDS011;65132;52.088;5.402;2023-11-21T07:38:20;14.00;;;5.78;;
76320;SDS011;65132;52.088;5.402;2023-11-21T07:40:47;15.60;;;5.93;;
76320;SDS011;65132;52.088;5.402;2023-11-21T07:43:14;13.38;;;5.57;;
76320;SDS011;65132;52.088;5.402;2023-11-21T07:45:40;14.25;;;5.53;;
76320;SDS011;65132;52.088;5.402;2023-11-21T07:48:09;15.38;;;6.07;;
76320;SDS011;65132;52.088;5.402;2023-11-21T07:50:38;12.15;;;5.10;;
76320;SDS011;65132;52.088;5.402;2023-11-21T07:53:08;18.00;;;5.20;;
76320;SDS011;65132;52.088;5.402;2023-11-21T07:55:34;15.98;;;5.47;;
76320;SDS011;65132;52.088;5.402;2023-11-21T07:58:01;14.27;;;5.13;;
76320;SDS011;65132;52.088;5.402;2023-11-21T08:00:27;18.75;;;5.30;;
76320;SDS011;65132;52.088;5.402;2023-11-21T08:02:54;14.38;;;5.22;;
76320;SDS011;65132;52.088;5.402;2023-11-21T08:05:23;15.13;;;5.25;;
76320;SDS011;65132;52.088;5.402;2023-11-21T08:07:57;13.35;;;5.35;;
76320;SDS011;65132;52.088;5.402;2023-11-21T08:10:27;12.70;;;5.05;;
76320;SDS011;65132;52.088;5.402;2023-11-21T08:12:54;12.38;;;4.97;;
76320;SDS011;65132;52.088;5.402;2023-11-21T08:15:21;11.95;;;5.05;;
76320;SDS011;65132;52.088;5.402;2023-11-21T08:17:50;16.33;;;5.65;;
76320;SDS011;65132;52.088;5.402;2023-11-21T08:20:21;15.20;;;4.93;;
76320;SDS011;65132;52.088;5.402;2023-11-21T08:22:47;13.43;;;4.63;;
76320;SDS011;65132;52.088;5.402;2023-11-21T08:25:17;16.17;;;5.10;;
76320;SDS011;65132;52.088;5.402;2023-11-21T08:27:46;16.88;;;5.00;;
76320;SDS011;65132;52.088;5.402;2023-11-21T08:30:13;16.08;;;5.10;;
76320;SDS011;65132;52.088;5.402;2023-11-21T08:32:40;11.05;;;4.65;;
76320;SDS011;65132;52.088;5.402;2023-11-21T08:35:10;12.82;;;4.22;;
76320;SDS011;65132;52.088;5.402;2023-11-21T08:37:38;14.50;;;4.32;;
76320;SDS011;65132;52.088;5.402;2023-11-21T08:40:05;12.68;;;4.38;;
76320;SDS011;65132;52.088;5.402;2023-11-21T08:42:38;15.23;;;4.38;;
76320;SDS011;65132;52.088;5.402;2023-11-21T08:45:07;13.35;;;4.63;;
76320;SDS011;65132;52.088;5.402;2023-11-21T08:47:39;11.23;;;4.50;;
76320;SDS011;65132;52.088;5.402;2023-11-21T08:50:06;11.98;;;3.85;;
76320;SDS011;65132;52.088;5.402;2023-11-21T08:52:34;13.10;;;4.43;;
76320;SDS011;65132;52.088;5.402;2023-11-21T08:55:00;12.13;;;3.78;;
76320;SDS011;65132;52.088;5.402;2023-11-21T08:57:35;12.52;;;4.70;;
76320;SDS011;65132;52.088;5.402;2023-11-21T09:00:05;11.25;;;4.18;;
76320;SDS011;65132;52.088;5.402;2023-11-21T09:02:40;8.35;;;3.22;;
76320;SDS011;65132;52.088;5.402;2023-11-21T09:05:10;12.88;;;4.00;;
76320;SDS011;65132;52.088;5.402;2023-11-21T09:07:40;12.80;;;3.97;;
76320;SDS011;65132;52.088;5.402;2023-11-21T09:10:08;12.57;;;3.92;;
76320;SDS011;65132;52.088;5.402;2023-11-21T09:12:38;11.07;;;4.07;;
76320;SDS011;65132;52.088;5.402;2023-11-21T09:15:06;16.65;;;4.82;;
76320;SDS011;65132;52.088;5.402;2023-11-21T09:17:33;14.95;;;4.45;;
76320;SDS011;65132;52.088;5.402;2023-11-21T09:20:01;16.88;;;5.80;;
76320;SDS011;65132;52.088;5.402;2023-11-21T09:22:30;13.00;;;4.82;;
76320;SDS011;65132;52.088;5.402;2023-11-21T09:24:58;14.00;;;6.38;;
76320;SDS011;65132;52.088;5.402;2023-11-21T09:27:24;14.45;;;5.00;;
76320;SDS011;65132;52.088;5.402;2023-11-21T09:29:51;12.52;;;4.43;;
76320;SDS011;65132;52.088;5.402;2023-11-21T09:32:20;12.32;;;5.10;;
76320;SDS011;65132;52.088;5.402;2023-11-21T09:34:49;15.27;;;5.82;;
76320;SDS011;65132;52.088;5.402;2023-11-21T09:37:17;16.52;;;6.40;;
76320;SDS011;65132;52.088;5.402;2023-11-21T09:39:52;15.90;;;6.05;;
76320;SDS011;65132;52.088;5.402;2023-11-21T09:42:38;12.23;;;5.20;;
76320;SDS011;65132;52.088;5.402;2023-11-21T09:45:09;18.13;;;6.07;;
76320;SDS011;65132;52.088;5.402;2023-11-21T09:48:00;15.23;;;5.95;;
76320;SDS011;65132;52.088;5.402;2023-11-21T09:50:27;17.58;;;6.30;;
76320;SDS011;65132;52.088;5.402;2023-11-21T09:53:06;15.35;;;5.60;;
76320;SDS011;65132;52.088;5.402;2023-11-21T09:55:45;12.85;;;5.35;;
76320;SDS011;65132;52.088;5.402;2023-11-21T09:58:19;15.55;;;6.00;;
76320;SDS011;65132;52.088;5.402;2023-11-21T10:03:17;14.82;;;5.80;;
76320;SDS011;65132;52.088;5.402;2023-11-21T10:05:46;15.38;;;6.28;;
76320;SDS011;65132;52.088;5.402;2023-11-21T10:08:19;17.38;;;6.18;;
76320;SDS011;65132;52.088;5.402;2023-11-21T10:10:49;15.20;;;6.40;;
76320;SDS011;65132;52.088;5.402;2023-11-21T10:13:19;17.67;;;6.72;;
76320;SDS011;65132;52.088;5.402;2023-11-21T10:15:50;17.52;;;5.63;;
76320;SDS011;65132;52.088;5.402;2023-11-21T10:18:17;16.00;;;6.70;;
76320;SDS011;65132;52.088;5.402;2023-11-21T10:20:45;15.75;;;5.70;;
76320;SDS011;65132;52.088;5.402;2023-11-21T10:23:12;16.70;;;5.88;;
76320;SDS011;65132;52.088;5.402;2023-11-21T10:25:38;19.42;;;6.43;;
76320;SDS011;65132;52.088;5.402;2023-11-21T10:28:05;16.00;;;6.22;;
76320;SDS011;65132;52.088;5.402;2023-11-21T10:30:34;14.27;;;5.88;;
76320;SDS011;65132;52.088;5.402;2023-11-21T10:35:50;13.25;;;5.00;;
76320;SDS011;65132;52.088;5.402;2023-11-21T10:38:15;16.05;;;5.13;;
76320;SDS011;65132;52.088;5.402;2023-11-21T10:40:42;12.80;;;5.28;;
76320;SDS011;65132;52.088;5.402;2023-11-21T10:43:13;14.52;;;5.07;;
76320;SDS011;65132;52.088;5.402;2023-11-21T10:45:40;13.80;;;5.00;;
76320;SDS011;65132;52.088;5.402;2023-11-21T10:48:08;11.75;;;4.57;;
76320;SDS011;65132;52.088;5.402;2023-11-21T10:50:36;9.07;;;3.80;;
76320;SDS011;65132;52.088;5.402;2023-11-21T10:53:04;10.65;;;3.65;;
76320;SDS011;65132;52.088;5.402;2023-11-21T10:55:31;11.85;;;4.18;;
76320;SDS011;65132;52.088;5.402;2023-11-21T10:58:00;13.45;;;5.00;;
76320;SDS011;65132;52.088;5.402;2023-11-21T11:00:28;13.43;;;4.55;;
76320;SDS011;65132;52.088;5.402;2023-11-21T11:02:55;12.68;;;4.53;;
76320;SDS011;65132;52.088;5.402;2023-11-21T11:05:23;12.63;;;4.38;;
76320;SDS011;65132;52.088;5.402;2023-11-21T11:07:54;10.55;;;4.03;;
76320;SDS011;65132;52.088;5.402;2023-11-21T11:10:26;10.30;;;4.22;;
76320;SDS011;65132;52.088;5.402;2023-11-21T11:12:55;10.77;;;4.05;;
76320;SDS011;65132;52.088;5.402;2023-11-21T11:15:22;12.40;;;4.18;;
76320;SDS011;65132;52.088;5.402;2023-11-21T11:17:49;10.90;;;3.92;;
76320;SDS011;65132;52.088;5.402;2023-11-21T11:20:16;11.68;;;4.63;;
76320;SDS011;65132;52.088;5.402;2023-11-21T11:25:59;16.35;;;4.63;;
76320;SDS011;65132;52.088;5.402;2023-11-21T11:28:52;14.65;;;4.82;;
76320;SDS011;65132;52.088;5.402;2023-11-21T11:31:30;12.88;;;4.70;;
76320;SDS011;65132;52.088;5.402;2023-11-21T11:34:09;12.20;;;4.70;;
76320;SDS011;65132;52.088;5.402;2023-11-21T11:37:11;13.57;;;4.85;;
76320;SDS011;65132;52.088;5.402;2023-11-21T11:39:41;14.48;;;5.22;;
76320;SDS011;65132;52.088;5.402;2023-11-21T11:42:13;15.38;;;5.30;;
76320;SDS011;65132;52.088;5.402;2023-11-21T11:50:01;14.52;;;4.93;;
76320;SDS011;65132;52.088;5.402;2023-11-21T11:52:39;12.55;;;5.25;;
76320;SDS011;65132;52.088;5.402;2023-11-21T11:55:07;16.63;;;5.80;;
76320;SDS011;65132;52.088;5.402;2023-11-21T11:57:45;12.13;;;5.45;;
76320;SDS011;65132;52.088;5.402;2023-11-21T12:00:18;13.45;;;5.18;;
76320;SDS011;65132;52.088;5.402;2023-11-21T12:02:51;13.65;;;5.57;;
76320;SDS011;65132;52.088;5.402;2023-11-21T12:05:27;13.15;;;5.63;;
76320;SDS011;65132;52.088;5.402;2023-11-21T12:08:01;18.63;;;6.13;;
76320;SDS011;65132;52.088;5.402;2023-11-21T12:10:32;12.35;;;5.28;;
76320;SDS011;65132;52.088;5.402;2023-11-21T12:13:04;13.98;;;5.93;;
76320;SDS011;65132;52.088;5.402;2023-11-21T12:15:33;15.77;;;5.82;;
76320;SDS011;65132;52.088;5.402;2023-11-21T12:18:05;12.73;;;5.75;;
76320;SDS011;65132;52.088;5.402;2023-11-21T12:20:32;13.82;;;5.88;;
76320;SDS011;65132;52.088;5.402;2023-11-21T12:22:59;16.20;;;5.82;;
76320;SDS011;65132;52.088;5.402;2023-11-21T12:25:27;14.85;;;5.63;;
76320;SDS011;65132;52.088;5.402;2023-11-21T12:27:56;12.98;;;4.93;;
76320;SDS011;65132;52.088;5.402;2023-11-21T12:30:23;13.95;;;6.18;;
76320;SDS011;65132;52.088;5.402;2023-11-21T12:32:54;14.85;;;5.75;;
76320;SDS011;65132;52.088;5.402;2023-11-21T12:35:24;15.38;;;5.78;;
76320;SDS011;65132;52.088;5.402;2023-11-21T12:37:52;15.43;;;5.32;;
76320;SDS011;65132;52.088;5.402;2023-11-21T12:40:22;12.70;;;4.82;;
76320;SDS011;65132;52.088;5.402;2023-11-21T12:42:49;14.48;;;5.18;;
76320;SDS011;65132;52.088;5.402;2023-11-21T12:45:19;17.17;;;6.47;;
76320;SDS011;65132;52.088;5.402;2023-11-21T12:47:50;15.15;;;6.57;;
76320;SDS011;65132;52.088;5.402;2023-11-21T12:50:18;16.83;;;6.20;;
76320;SDS011;65132;52.088;5.402;2023-11-21T12:52:51;17.02;;;6.18;;
76320;SDS011;65132;52.088;5.402;2023-11-21T12:55:21;15.32;;;5.95;;
76320;SDS011;65132;52.088;5.402;2023-11-21T12:57:55;12.90;;;5.35;;
76320;SDS011;65132;52.088;5.402;2023-11-21T13:00:31;16.00;;;5.95;;
76320;SDS011;65132;52.088;5.402;2023-11-21T13:03:00;13.32;;;5.65;;
76320;SDS011;65132;52.088;5.402;2023-11-21T13:05:27;15.25;;;6.15;;
76320;SDS011;65132;52.088;5.402;2023-11-21T13:07:56;15.65;;;5.97;;
76320;SDS011;65132;52.088;5.402;2023-11-21T13:10:25;17.20;;;7.30;;
76320;SDS011;65132;52.088;5.402;2023-11-21T13:12:58;17.15;;;6.45;;
76320;SDS011;65132;52.088;5.402;2023-11-21T13:15:28;15.60;;;5.90;;
76320;SDS011;65132;52.088;5.402;2023-11-21T13:17:55;15.32;;;6.43;;
76320;SDS011;65132;52.088;5.402;2023-11-21T13:20:23;20.23;;;6.70;;
76320;SDS011;65132;52.088;5.402;2023-11-21T13:22:55;14.88;;;6.13;;
76320;SDS011;65132;52.088;5.402;2023-11-21T13:25:26;16.98;;;6.30;;
76320;SDS011;65132;52.088;5.402;2023-11-21T13:27:58;15.27;;;5.65;;
76320;SDS011;65132;52.088;5.402;2023-11-21T13:30:25;13.07;;;5.47;;
76320;SDS011;65132;52.088;5.402;2023-11-21T13:32:51;12.35;;;4.93;;
76320;SDS011;65132;52.088;5.402;2023-11-21T13:35:18;13.18;;;4.80;;
76320;SDS011;65132;52.088;5.402;2023-11-21T13:37:45;11.60;;;4.40;;
76320;SDS011;65132;52.088;5.402;2023-11-21T13:40:14;10.35;;;3.90;;
76320;SDS011;65132;52.088;5.402;2023-11-21T13:42:41;10.13;;;4.68;;
76320;SDS011;65132;52.088;5.402;2023-11-21T13:45:12;9.63;;;2.72;;
76320;SDS011;65132;52.088;5.402;2023-11-21T13:47:43;6.32;;;2.50;;
76320;SDS011;65132;52.088;5.402;2023-11-21T13:50:13;6.50;;;2.47;;
76320;SDS011;65132;52.088;5.402;2023-11-21T13:52:39;5.07;;;1.75;;
76320;SDS011;65132;52.088;5.402;2023-11-21T13:55:07;9.38;;;2.60;;
76320;SDS011;65132;52.088;5.402;2023-11-21T13:57:33;6.38;;;1.98;;
76320;SDS011;65132;52.088;5.402;2023-11-21T14:00:00;6.20;;;2.00;;
76320;SDS011;65132;52.088;5.402;2023-11-21T14:02:29;6.18;;;1.65;;
76320;SDS011;65132;52.088;5.402;2023-11-21T14:04:56;10.90;;;3.67;;
76320;SDS011;65132;52.088;5.402;2023-11-21T14:07:23;9.80;;;3.53;;
76320;SDS011;65132;52.088;5.402;2023-11-21T14:09:49;9.82;;;3.22;;
76320;SDS011;65132;52.088;5.402;2023-11-21T14:12:18;13.55;;;5.07;;
76320;SDS011;65132;52.088;5.402;2023-11-21T14:14:45;12.73;;;4.57;;
76320;SDS011;65132;52.088;5.402;2023-11-21T14:17:14;16.70;;;5.10;;
76320;SDS011;65132;52.088;5.402;2023-11-21T14:19:41;13.13;;;5.65;;
76320;SDS011;65132;52.088;5.402;2023-11-21T14:22:08;15.90;;;6.10;;
76320;SDS011;65132;52.088;5.402;2023-11-21T14:24:36;17.63;;;6.35;;
76320;SDS011;65132;52.088;5.402;2023-11-21T14:27:04;16.45;;;5.75;;
76320;SDS011;65132;52.088;5.402;2023-11-21T14:29:33;19.92;;;6.63;;
76320;SDS011;65132;52.088;5.402;2023-11-21T14:32:02;13.77;;;5.63;;
76320;SDS011;65132;52.088;5.402;2023-11-21T14:34:28;16.60;;;5.55;;
76320;SDS011;65132;52.088;5.402;2023-11-21T14:36:57;16.25;;;5.68;;
76320;SDS011;65132;52.088;5.402;2023-11-21T14:39:26;15.90;;;5.93;;
76320;SDS011;65132;52.088;5.402;2023-11-21T14:41:53;15.13;;;5.88;;
76320;SDS011;65132;52.088;5.402;2023-11-21T14:44:21;18.75;;;6.75;;
76320;SDS011;65132;52.088;5.402;2023-11-21T14:46:47;18.48;;;6.38;;
76320;SDS011;65132;52.088;5.402;2023-11-21T14:49:14;17.90;;;6.00;;
76320;SDS011;65132;52.088;5.402;2023-11-21T14:51:40;16.08;;;6.25;;
76320;SDS011;65132;52.088;5.402;2023-11-21T14:54:10;18.10;;;6.05;;
76320;SDS011;65132;52.088;5.402;2023-11-21T14:56:39;16.17;;;6.13;;
76320;SDS011;65132;52.088;5.402;2023-11-21T14:59:05;18.60;;;6.28;;
76320;SDS011;65132;52.088;5.402;2023-11-21T15:01:34;15.07;;;5.68;;
76320;SDS011;65132;52.088;5.402;2023-11-21T15:04:01;19.08;;;6.78;;
76320;SDS011;65132;52.088;5.402;2023-11-21T15:06:29;17.33;;;6.05;;